createdAt,value
2019-03-08T00:01:59.920Z,1.98
2019-03-08T00:07:09.134Z,2.81
2019-03-08T00:12:18.200Z,2.78
2019-03-08T00:17:27.318Z,2.25
2019-03-08T00:22:36.382Z,1.98
2019-03-08T00:27:45.625Z,1.71
2019-03-08T00:32:54.691Z,1.89
2019-03-08T00:38:03.889Z,1.77
2019-03-08T00:43:13.926Z,1.44
2019-03-08T00:48:12.980Z,1.58
2019-03-08T00:53:21.994Z,1.41
2019-03-08T00:58:31.204Z,1.42
2019-03-08T01:03:40.234Z,1.32
2019-03-08T01:08:49.509Z,1.07
2019-03-08T01:13:58.627Z,1.58
2019-03-08T01:19:07.762Z,1.17
2019-03-08T01:24:17.003Z,1.73
2019-03-08T01:29:26.124Z,1.70
2019-03-08T01:34:35.185Z,1.36
2019-03-08T01:39:44.334Z,1.41
2019-03-08T01:44:53.406Z,1.44
2019-03-08T01:50:02.511Z,1.42
2019-03-08T01:55:11.594Z,1.71
2019-03-08T02:00:20.710Z,1.34
2019-03-08T02:05:29.938Z,1.55
2019-03-08T02:10:39.274Z,1.19
2019-03-08T02:15:48.355Z,1.21
2019-03-08T02:21:06.258Z,1.32
2019-03-08T02:26:06.294Z,1.21
2019-03-08T02:31:15.466Z,1.36
2019-03-08T02:36:24.486Z,1.19
2019-03-08T02:41:33.610Z,1.07
2019-03-08T02:46:42.670Z,1.20
2019-03-08T02:51:51.826Z,1.42
2019-03-08T02:57:00.882Z,1.19
2019-03-08T03:02:10.073Z,1.87
2019-03-08T03:07:19.171Z,1.22
2019-03-08T03:12:28.267Z,1.52
2019-03-08T03:17:37.328Z,1.28
2019-03-08T03:22:46.450Z,1.35
2019-03-08T03:27:55.043Z,1.19
2019-03-08T03:33:04.126Z,1.46
2019-03-08T03:38:13.209Z,1.21
2019-03-08T03:43:22.521Z,0.97
2019-03-08T03:48:31.725Z,1.44
2019-03-08T03:53:40.862Z,1.15
2019-03-08T03:58:49.938Z,1.33
2019-03-08T04:03:59.111Z,1.06
2019-03-08T04:09:08.178Z,1.32
2019-03-08T04:15:03.970Z,1.49
2019-03-08T04:20:13.035Z,1.42
2019-03-08T04:25:22.210Z,1.28
2019-03-08T04:30:31.298Z,1.40
2019-03-08T04:35:40.446Z,0.97
2019-03-08T04:40:49.540Z,1.52
2019-03-08T04:45:58.637Z,1.18
2019-03-08T04:51:07.695Z,1.87
2019-03-08T04:56:17.174Z,1.70
2019-03-08T05:01:26.302Z,1.49
2019-03-08T05:06:35.494Z,1.42
2019-03-08T05:11:44.594Z,1.16
2019-03-08T05:16:53.679Z,1.49
2019-03-08T05:22:02.806Z,1.43
2019-03-08T05:27:11.942Z,1.39
2019-03-08T05:32:21.004Z,1.56
2019-03-08T05:37:30.358Z,1.12
2019-03-08T05:42:39.787Z,1.29
2019-03-08T05:47:49.027Z,1.21
2019-03-08T05:52:58.123Z,1.31
2019-03-08T05:58:07.252Z,1.38
2019-03-08T06:03:16.305Z,1.16
2019-03-08T06:08:25.483Z,1.69
2019-03-08T06:13:34.758Z,1.48
2019-03-08T06:18:43.930Z,1.64
2019-03-08T06:23:53.005Z,1.32
2019-03-08T06:29:02.181Z,1.42
2019-03-08T06:34:11.255Z,1.22
2019-03-08T06:39:21.995Z,1.29
2019-03-08T06:44:21.032Z,1.07
2019-03-08T06:49:30.201Z,1.16
2019-03-08T06:54:39.292Z,1.28
2019-03-08T06:59:48.445Z,1.12
2019-03-08T07:04:57.526Z,1.02
2019-03-08T07:15:15.975Z,1.05
2019-03-08T07:20:25.010Z,1.24
2019-03-08T07:25:34.137Z,1.25
2019-03-08T07:30:43.198Z,0.98
2019-03-08T07:35:52.325Z,1.33
2019-03-08T07:41:01.403Z,0.96
2019-03-08T07:46:10.540Z,1.01
2019-03-08T07:51:19.609Z,1.19
2019-03-08T07:56:28.693Z,1.22
2019-03-08T08:01:37.695Z,0.98
2019-03-08T08:06:47.005Z,1.09
2019-03-08T08:11:56.206Z,1.12
2019-03-08T08:17:05.501Z,1.05
2019-03-08T08:22:14.545Z,1.14
2019-03-08T08:27:23.633Z,1.11
2019-03-08T08:32:32.717Z,0.96
2019-03-08T08:37:41.856Z,1.00
2019-03-08T08:42:51.122Z,1.01
2019-03-08T08:48:00.306Z,1.09
2019-03-08T08:53:09.392Z,1.17
2019-03-08T08:58:18.499Z,1.14
2019-03-08T09:03:27.553Z,1.08
2019-03-08T09:08:36.650Z,1.23
2019-03-08T09:13:45.710Z,0.85
2019-03-08T09:18:54.897Z,1.04
2019-03-08T09:24:03.941Z,1.01
2019-03-08T09:29:13.221Z,1.32
2019-03-08T09:34:22.728Z,1.23
2019-03-08T09:39:32.114Z,1.18
2019-03-08T09:44:41.182Z,0.95
2019-03-08T09:49:50.298Z,1.44
2019-03-08T09:54:59.366Z,1.03
2019-03-08T10:00:08.570Z,1.28
2019-03-08T10:05:17.642Z,1.20
2019-03-08T10:10:26.366Z,1.16
2019-03-08T10:15:35.545Z,0.97
2019-03-08T10:20:44.695Z,1.14
2019-03-08T10:25:53.759Z,1.07
2019-03-08T10:31:02.878Z,1.13
2019-03-08T10:36:12.078Z,1.18
2019-03-08T10:41:21.258Z,1.49
2019-03-08T10:46:30.573Z,0.95
2019-03-08T10:51:40.083Z,0.83
2019-03-08T10:56:49.159Z,0.77
2019-03-08T11:01:58.448Z,0.46
2019-03-08T11:07:07.505Z,0.30
2019-03-08T11:12:16.616Z,0.54
2019-03-08T11:17:25.715Z,0.51
2019-03-08T11:22:34.866Z,1.12
2019-03-08T11:27:44.138Z,0.56
2019-03-08T11:32:53.222Z,0.27
2019-03-08T11:38:02.270Z,0.34
2019-03-08T11:43:11.686Z,0.23
2019-03-08T11:48:20.756Z,0.28
2019-03-08T11:53:29.922Z,0.22
2019-03-08T11:58:38.962Z,0.34
2019-03-08T12:03:48.247Z,0.34
2019-03-08T12:08:57.265Z,0.35
2019-03-08T12:14:06.377Z,0.26
2019-03-08T12:19:15.410Z,0.20
2019-03-08T12:24:24.603Z,0.25
2019-03-08T12:29:33.670Z,0.30
2019-03-08T12:34:42.854Z,0.19
2019-03-08T12:39:51.902Z,0.19
2019-03-08T12:45:01.002Z,0.28
2019-03-08T12:50:10.074Z,0.08
2019-03-08T12:55:19.191Z,0.08
2019-03-08T13:00:28.266Z,0.08
2019-03-08T13:05:37.441Z,0.05
2019-03-08T13:10:46.468Z,0.07
2019-03-08T13:15:55.729Z,0.06
2019-03-08T13:21:04.967Z,0.22
2019-03-08T13:26:14.269Z,0.17
2019-03-08T13:31:22.879Z,0.76
2019-03-08T13:36:32.675Z,1.10
2019-03-08T13:41:41.361Z,0.37
2019-03-08T13:46:50.566Z,0.34
2019-03-08T13:51:59.642Z,0.29
2019-03-08T13:57:08.734Z,0.24
2019-03-08T14:02:17.757Z,0.19
2019-03-08T14:07:26.878Z,0.02
2019-03-08T14:12:36.945Z,0.07
2019-03-08T14:17:36.022Z,0.02
2019-03-08T14:22:45.094Z,0.05
2019-03-08T14:27:54.293Z,0.02
2019-03-08T14:33:03.393Z,0.03
2019-03-08T14:38:12.534Z,0.00
2019-03-08T14:43:21.610Z,0.00
2019-03-08T14:48:30.757Z,0.00
2019-03-08T14:53:39.473Z,0.02
2019-03-08T14:58:48.781Z,0.02
2019-03-08T15:03:57.891Z,0.06
2019-03-08T15:09:06.965Z,0.07
2019-03-08T15:14:16.082Z,0.01
2019-03-08T15:19:25.123Z,0.03
2019-03-08T15:24:38.350Z,0.00
2019-03-08T15:29:42.738Z,0.00
2019-03-08T15:34:51.791Z,0.04
2019-03-08T15:40:00.971Z,0.01
2019-03-08T15:45:10.228Z,0.04
2019-03-08T15:50:19.381Z,0.09
2019-03-08T15:55:28.587Z,0.07
2019-03-08T16:00:37.007Z,0.02
2019-03-08T16:05:46.082Z,0.09
2019-03-08T16:10:55.258Z,0.07
2019-03-08T16:16:04.358Z,0.09
2019-03-08T16:21:14.358Z,0.02
2019-03-08T16:26:25.172Z,0.06
2019-03-08T16:31:30.908Z,0.09
2019-03-08T16:36:39.995Z,0.06
2019-03-08T16:41:49.145Z,0.12
2019-03-08T16:46:58.223Z,0.02
2019-03-08T16:52:07.301Z,0.00
2019-03-08T16:57:15.906Z,0.04
2019-03-08T17:02:25.027Z,0.08
2019-03-08T17:07:34.111Z,0.09
2019-03-08T17:12:46.643Z,0.10
2019-03-08T17:17:45.638Z,0.04
2019-03-08T17:22:54.813Z,0.16
2019-03-08T17:28:03.845Z,0.18
2019-03-08T17:33:12.962Z,0.23
2019-03-08T17:38:22.006Z,0.19
2019-03-08T17:43:31.286Z,0.27
2019-03-08T17:48:40.353Z,0.17
2019-03-08T17:53:49.513Z,0.28
2019-03-08T17:58:58.578Z,0.98
2019-03-08T18:04:07.741Z,0.58
2019-03-08T18:09:16.823Z,0.38
2019-03-08T18:14:25.989Z,0.55
2019-03-08T18:19:35.055Z,0.41
2019-03-08T18:24:44.218Z,0.72
2019-03-08T18:29:53.887Z,1.26
2019-03-08T18:35:03.027Z,1.17
2019-03-08T18:40:12.071Z,1.07
2019-03-08T18:45:21.250Z,0.93
2019-03-08T18:50:30.321Z,1.12
2019-03-08T18:55:39.444Z,1.10
2019-03-08T19:00:48.737Z,1.16
2019-03-08T19:05:58.050Z,1.37
2019-03-08T19:11:07.181Z,1.18
2019-03-08T19:16:16.326Z,1.74
2019-03-08T19:21:25.373Z,1.45
2019-03-08T19:26:34.477Z,1.70
2019-03-08T19:31:43.562Z,1.66
2019-03-08T19:36:52.717Z,1.62
2019-03-08T19:42:01.786Z,1.59
2019-03-08T19:47:10.906Z,2.68
2019-03-08T19:52:19.918Z,3.21
2019-03-08T19:57:29.332Z,3.33
2019-03-08T20:02:42.051Z,2.89
2019-03-08T20:07:47.089Z,3.13
2019-03-08T20:12:56.189Z,4.52
2019-03-08T20:18:05.320Z,3.58
2019-03-08T20:23:14.463Z,3.23
2019-03-08T20:28:23.558Z,3.31
2019-03-08T20:33:32.652Z,3.24
2019-03-08T20:38:41.962Z,2.56
2019-03-08T20:43:51.011Z,3.00
2019-03-08T20:49:00.116Z,4.09
2019-03-08T20:54:11.201Z,4.66
2019-03-08T20:59:10.253Z,4.86
2019-03-08T21:04:19.341Z,5.45
2019-03-08T21:09:28.491Z,5.19
2019-03-08T21:14:37.555Z,4.38
2019-03-08T21:19:46.747Z,2.92
2019-03-08T21:24:55.827Z,3.10
2019-03-08T21:30:04.931Z,3.17
2019-03-08T21:35:13.947Z,3.42
2019-03-08T21:40:23.162Z,3.28
2019-03-08T21:45:32.683Z,4.51
2019-03-08T21:50:41.827Z,5.16
2019-03-08T21:55:50.900Z,4.45
2019-03-08T22:01:00.053Z,5.47
2019-03-08T22:06:09.134Z,4.70
2019-03-08T22:11:18.211Z,3.88
2019-03-08T22:16:27.314Z,4.45
2019-03-08T22:21:36.471Z,4.30
2019-03-08T22:26:45.550Z,4.45
2019-03-08T22:31:54.715Z,4.18
2019-03-08T22:37:03.769Z,4.72
2019-03-08T22:42:12.921Z,4.75
2019-03-08T22:47:20.490Z,5.66
2019-03-08T22:52:29.628Z,4.72
2019-03-08T22:57:38.702Z,4.82
2019-03-08T23:02:47.818Z,4.00
2019-03-08T23:07:56.867Z,4.87
2019-03-08T23:13:05.992Z,3.93
2019-03-08T23:18:15.085Z,4.09
2019-03-08T23:23:24.234Z,4.46
2019-03-08T23:28:33.433Z,4.62
2019-03-08T23:33:42.807Z,2.71
2019-03-08T23:38:51.816Z,5.51
2019-03-08T23:44:00.949Z,3.28
2019-03-08T23:49:10.009Z,4.54
2019-03-08T23:54:19.126Z,4.60
2019-03-08T23:59:28.127Z,4.30
